createdAt,value
2023-03-28T00:02:03.991Z,90.34
2023-03-28T00:07:09.130Z,89.81
2023-03-28T00:12:12.586Z,91.09
2023-03-28T00:17:18.120Z,91.71
2023-03-28T00:22:23.051Z,92.31
2023-03-28T00:27:27.499Z,92.12
2023-03-28T00:32:32.132Z,92.21
2023-03-28T00:37:37.830Z,91.96
2023-03-28T00:42:43.679Z,91.67
2023-03-28T00:47:51.689Z,91.34
2023-03-28T00:53:02.417Z,91.87
2023-03-28T00:58:09.549Z,91.50
2023-03-28T01:03:16.237Z,90.79
2023-03-28T01:08:23.274Z,91.34
2023-03-28T01:13:29.528Z,91.29
2023-03-28T01:18:35.071Z,91.11
2023-03-28T01:24:11.473Z,91.44
2023-03-28T01:29:49.237Z,91.37
2023-03-28T01:35:12.400Z,91.55
2023-03-28T01:40:37.298Z,90.99
2023-03-28T01:45:52.775Z,90.55
2023-03-28T01:51:02.455Z,90.10
2023-03-28T01:56:15.827Z,89.41
2023-03-28T02:01:24.762Z,90.14
2023-03-28T02:06:29.654Z,89.72
2023-03-28T02:11:36.180Z,90.85
2023-03-28T02:16:42.934Z,90.96
2023-03-28T02:21:52.348Z,91.58
2023-03-28T02:26:57.472Z,91.58
2023-03-28T02:32:00.881Z,91.04
2023-03-28T02:37:16.241Z,91.15
2023-03-28T02:43:02.679Z,90.88
2023-03-28T02:48:18.179Z,90.78
2023-03-28T02:53:28.469Z,91.14
2023-03-28T02:58:38.810Z,90.99
2023-03-28T03:03:43.942Z,91.49
2023-03-28T03:08:47.333Z,92.16
2023-03-28T03:13:50.797Z,91.82
2023-03-28T03:18:55.141Z,92.95
2023-03-28T03:23:58.564Z,92.17
2023-03-28T03:29:01.928Z,92.89
2023-03-28T03:34:07.663Z,93.06
2023-03-28T03:39:10.940Z,93.37
2023-03-28T03:44:14.465Z,93.13
2023-03-28T03:49:18.979Z,93.25
2023-03-28T03:54:22.098Z,93.77
2023-03-28T03:59:25.841Z,94.27
2023-03-28T04:04:30.816Z,94.19
2023-03-28T04:09:34.070Z,94.53
2023-03-28T04:14:37.371Z,94.20
2023-03-28T04:19:42.156Z,93.85
2023-03-28T04:24:45.860Z,94.05
2023-03-28T04:29:49.412Z,93.88
2023-03-28T04:34:54.070Z,94.52
2023-03-28T04:40:01.972Z,94.36
2023-03-28T04:45:08.658Z,94.16
2023-03-28T04:50:14.300Z,93.75
2023-03-28T04:55:17.630Z,93.72
2023-03-28T05:00:22.964Z,93.06
2023-03-28T05:05:28.125Z,93.49
2023-03-28T05:10:31.304Z,93.47
2023-03-28T05:15:35.128Z,94.58
2023-03-28T05:20:39.823Z,94.20
2023-03-28T05:25:46.777Z,94.89
2023-03-28T05:30:50.928Z,94.78
2023-03-28T05:35:55.732Z,94.38
2023-03-28T05:41:02.083Z,94.27
2023-03-28T05:46:06.179Z,93.29
2023-03-28T05:51:17.186Z,93.86
2023-03-28T05:56:20.446Z,93.96
2023-03-28T06:01:27.895Z,93.85
2023-03-28T06:06:34.604Z,93.82
2023-03-28T06:11:38.074Z,92.99
2023-03-28T06:16:41.514Z,92.99
2023-03-28T06:21:46.276Z,90.91
2023-03-28T06:26:49.796Z,83.24
2023-03-28T06:31:53.059Z,85.30
2023-03-28T06:36:57.901Z,77.44
2023-03-28T06:42:03.666Z,71.24
2023-03-28T06:47:07.253Z,70.92
2023-03-28T06:52:12.159Z,65.21
2023-03-28T06:57:15.933Z,66.57
2023-03-28T07:02:19.344Z,65.70
2023-03-28T07:07:24.160Z,62.13
2023-03-28T07:12:27.545Z,60.72
2023-03-28T07:17:30.918Z,59.22
2023-03-28T07:22:35.473Z,58.65
2023-03-28T07:27:38.746Z,58.70
2023-03-28T07:32:52.407Z,57.04
2023-03-28T07:38:04.595Z,54.82
2023-03-28T07:43:07.851Z,55.75
2023-03-28T07:48:11.269Z,53.01
2023-03-28T07:53:16.292Z,51.58
2023-03-28T07:58:19.437Z,48.72
2023-03-28T08:03:23.844Z,46.34
2023-03-28T08:08:28.659Z,42.09
2023-03-28T08:13:31.772Z,38.09
2023-03-28T08:18:35.028Z,39.82
2023-03-28T08:23:39.737Z,38.75
2023-03-28T08:28:43.121Z,40.35
2023-03-28T08:33:48.720Z,39.32
2023-03-28T08:38:54.523Z,38.37
2023-03-28T08:44:13.118Z,39.02
2023-03-28T08:49:19.470Z,41.35
2023-03-28T08:54:31.898Z,41.04
2023-03-28T08:59:44.517Z,41.10
2023-03-28T09:04:48.085Z,41.71
2023-03-28T09:10:03.672Z,40.25
2023-03-28T09:15:39.428Z,39.87
2023-03-28T09:20:49.837Z,40.14
2023-03-28T09:26:01.736Z,41.02
2023-03-28T09:31:09.347Z,40.87
2023-03-28T09:36:15.195Z,41.86
2023-03-28T09:41:26.392Z,41.98
2023-03-28T09:46:33.018Z,42.90
2023-03-28T09:51:36.417Z,43.64
2023-03-28T09:56:43.252Z,43.34
2023-03-28T10:01:49.326Z,42.31
2023-03-28T10:06:52.726Z,43.11
2023-03-28T10:11:59.959Z,42.38
2023-03-28T10:17:06.004Z,43.07
2023-03-28T10:22:13.682Z,43.03
2023-03-28T10:27:24.075Z,42.58
2023-03-28T10:32:30.409Z,42.49
2023-03-28T10:37:35.226Z,41.92
2023-03-28T10:42:45.356Z,43.25
2023-03-28T10:47:50.871Z,43.38
2023-03-28T10:53:02.121Z,43.54
2023-03-28T10:58:16.951Z,43.05
2023-03-28T11:03:36.243Z,43.15
2023-03-28T11:08:51.521Z,43.22
2023-03-28T11:14:05.607Z,43.97
2023-03-28T11:19:17.078Z,44.58
2023-03-28T11:24:29.686Z,43.27
2023-03-28T11:29:43.452Z,42.28
2023-03-28T11:34:59.207Z,43.19
2023-03-28T11:40:11.999Z,43.28
2023-03-28T11:45:46.796Z,43.42
2023-03-28T11:51:02.827Z,44.06
2023-03-28T11:56:14.278Z,43.49
2023-03-28T12:01:22.930Z,43.93
2023-03-28T12:06:31.664Z,44.07
2023-03-28T12:11:39.223Z,44.19
2023-03-28T12:16:49.448Z,43.30
2023-03-28T12:22:01.015Z,42.99
2023-03-28T12:27:14.808Z,43.90
2023-03-28T12:32:33.409Z,46.69
2023-03-28T12:37:43.368Z,46.36
2023-03-28T12:42:47.967Z,47.17
2023-03-28T12:47:56.102Z,48.91
2023-03-28T12:53:00.520Z,50.24
2023-03-28T12:58:23.323Z,56.15
2023-03-28T13:03:38.470Z,59.63
2023-03-28T13:09:00.553Z,60.32
2023-03-28T13:14:15.841Z,61.42
2023-03-28T13:19:20.784Z,61.61
2023-03-28T13:24:33.556Z,59.36
2023-03-28T13:29:51.089Z,59.08
2023-03-28T13:35:00.367Z,57.43
2023-03-28T13:40:07.337Z,55.81
2023-03-28T13:45:21.698Z,56.63
2023-03-28T13:50:30.632Z,56.65
2023-03-28T13:55:34.215Z,56.83
2023-03-28T14:00:37.676Z,56.69
2023-03-28T14:05:46.408Z,59.28
2023-03-28T14:10:51.157Z,58.83
2023-03-28T14:15:56.073Z,58.39
2023-03-28T14:21:01.814Z,59.45
2023-03-28T14:26:08.946Z,59.03
2023-03-28T14:31:14.918Z,58.20
2023-03-28T14:36:19.505Z,56.49
2023-03-28T14:41:27.624Z,56.59
2023-03-28T14:46:34.649Z,55.68
2023-03-28T14:51:43.800Z,55.92
2023-03-28T14:56:48.052Z,55.47
2023-03-28T15:01:52.012Z,54.39
2023-03-28T15:06:58.008Z,53.61
2023-03-28T15:12:06.772Z,54.04
2023-03-28T15:17:19.305Z,53.67
2023-03-28T15:22:28.348Z,54.13
2023-03-28T15:27:33.877Z,54.59
2023-03-28T15:32:37.568Z,54.34
2023-03-28T15:37:46.213Z,53.98
2023-03-28T15:42:52.510Z,53.11
2023-03-28T15:47:57.397Z,53.36
2023-03-28T15:53:06.104Z,53.17
2023-03-28T15:58:14.112Z,53.92
2023-03-28T16:03:37.882Z,54.70
2023-03-28T16:08:45.225Z,54.13
2023-03-28T16:13:49.878Z,54.76
2023-03-28T16:18:53.403Z,53.79
2023-03-28T16:23:58.305Z,54.31
2023-03-28T16:29:03.573Z,54.79
2023-03-28T16:34:09.327Z,55.33
2023-03-28T16:39:14.845Z,53.96
2023-03-28T16:44:18.232Z,53.66
2023-03-28T16:49:21.402Z,54.64
2023-03-28T16:54:26.233Z,54.87
2023-03-28T16:59:29.719Z,55.94
2023-03-28T17:04:38.328Z,55.49
2023-03-28T17:09:44.132Z,56.58
2023-03-28T17:14:47.333Z,57.07
2023-03-28T17:19:51.084Z,56.58
2023-03-28T17:24:57.384Z,57.57
2023-03-28T17:30:01.408Z,58.11
2023-03-28T17:35:05.235Z,59.17
2023-03-28T17:40:14.722Z,58.80
2023-03-28T17:45:18.056Z,59.21
2023-03-28T17:50:21.620Z,59.51
2023-03-28T17:55:26.851Z,61.18
2023-03-28T18:00:31.480Z,61.38
2023-03-28T18:05:35.338Z,60.49
2023-03-28T18:10:41.475Z,61.50
2023-03-28T18:15:44.682Z,60.51
2023-03-28T18:20:48.780Z,62.30
2023-03-28T18:25:54.291Z,63.01
2023-03-28T18:31:07.446Z,61.38
2023-03-28T18:36:12.613Z,62.55
2023-03-28T18:41:17.722Z,62.33
2023-03-28T18:46:21.124Z,63.42
2023-03-28T18:51:24.448Z,61.68
2023-03-28T18:56:33.002Z,61.77
2023-03-28T19:01:41.153Z,62.53
2023-03-28T19:06:46.846Z,62.16
2023-03-28T19:11:53.107Z,63.14
2023-03-28T19:16:56.456Z,63.17
2023-03-28T19:21:59.724Z,62.40
2023-03-28T19:27:05.330Z,63.24
2023-03-28T19:32:08.860Z,62.76
2023-03-28T19:37:12.831Z,63.48
2023-03-28T19:42:20.449Z,63.74
2023-03-28T19:47:23.714Z,62.61
2023-03-28T19:52:27.172Z,63.08
2023-03-28T19:57:31.812Z,62.34
2023-03-28T20:02:37.492Z,62.77
2023-03-28T20:07:41.159Z,62.73
2023-03-28T20:12:45.864Z,62.88
2023-03-28T20:17:49.623Z,63.01
2023-03-28T20:22:53.121Z,62.99
2023-03-28T20:27:59.459Z,62.52
2023-03-28T20:33:03.212Z,62.14
2023-03-28T20:38:06.891Z,63.05
2023-03-28T20:43:11.938Z,62.24
2023-03-28T20:48:16.786Z,62.48
2023-03-28T20:53:20.229Z,62.64
2023-03-28T20:58:24.984Z,63.59
2023-03-28T21:03:39.449Z,64.19
2023-03-28T21:08:45.867Z,64.28
2023-03-28T21:13:50.553Z,64.75
2023-03-28T21:18:54.380Z,64.32
2023-03-28T21:23:58.172Z,64.87
2023-03-28T21:29:02.987Z,64.75
2023-03-28T21:34:06.245Z,64.07
2023-03-28T21:39:09.468Z,65.17
2023-03-28T21:44:14.206Z,64.45
2023-03-28T21:49:18.257Z,64.40
2023-03-28T21:54:21.506Z,64.37
2023-03-28T21:59:27.516Z,64.23
2023-03-28T22:04:31.032Z,64.18
2023-03-28T22:09:36.281Z,64.09
2023-03-28T22:14:41.190Z,63.88
2023-03-28T22:19:44.560Z,63.74
2023-03-28T22:24:47.856Z,63.97
2023-03-28T22:29:52.555Z,63.83
2023-03-28T22:34:56.190Z,63.37
2023-03-28T22:39:59.508Z,63.85
2023-03-28T22:45:04.630Z,63.92
2023-03-28T22:50:11.486Z,64.34
2023-03-28T22:55:14.735Z,63.92
2023-03-28T23:00:22.985Z,64.10
2023-03-28T23:05:26.840Z,64.83
2023-03-28T23:10:32.705Z,64.63
2023-03-28T23:15:37.334Z,64.69
2023-03-28T23:20:40.367Z,64.53
2023-03-28T23:25:43.476Z,64.76
2023-03-28T23:30:48.259Z,65.03
2023-03-28T23:35:51.452Z,65.17
2023-03-28T23:40:54.880Z,64.72
2023-03-28T23:45:59.342Z,64.82
2023-03-28T23:51:02.630Z,64.88
2023-03-28T23:56:06.820Z,65.08
